Time;durP1;ratioP1;P1;durP2;ratioP2;P2;SDS_P1;SDS_P2;PMS_P1;PMS_P2;Temp;Humidity;BMP_temperature;BMP_pressure;BME280_temperature;BME280_humidity;BME280_pressure;Samples;Min_cycle;Max_cycle;Signal;HPM_P1;HPM_P2
2023/04/19 00:00:56;;;;;;;27.80;15.73;;;;;;;10.41;100.00;98906.56;2578745;28;20050;-82
2023/04/19 00:02:12;;;;;;;27.83;16.02;;;;;;;10.36;100.00;98901.38;2578849;28;20050;-81
2023/04/19 00:03:29;;;;;;;29.70;16.35;;;;;;;10.27;100.00;98904.19;2578451;28;20050;-82
2023/04/19 00:04:44;;;;;;;29.17;16.23;;;;;;;10.11;100.00;98906.22;2578633;28;20557;-82
2023/04/19 00:06:01;;;;;;;30.08;16.45;;;;;;;10.11;100.00;98906.22;2578783;28;20208;-81
2023/04/19 00:07:17;;;;;;;26.48;16.02;;;;;;;9.92;100.00;98893.50;2578436;28;20486;-82
2023/04/19 00:08:33;;;;;;;26.20;14.35;;;;;;;10.08;100.00;98896.69;2578677;28;20054;-82
2023/04/19 00:09:48;;;;;;;28.52;15.18;;;;;;;10.14;100.00;98900.94;2578872;28;20066;-81
2023/04/19 00:11:04;;;;;;;26.52;14.63;;;;;;;10.32;100.00;98897.97;2578540;28;20113;-82
2023/04/19 00:12:19;;;;;;;26.75;16.00;;;;;;;10.20;100.00;98890.38;2578686;28;20498;-82
2023/04/19 00:13:35;;;;;;;27.55;15.25;;;;;;;10.25;100.00;98888.53;2578614;28;20085;-81
2023/04/19 00:14:51;;;;;;;29.58;15.55;;;;;;;10.22;100.00;98892.94;2576063;28;20058;-82
2023/04/19 00:16:07;;;;;;;28.42;15.90;;;;;;;10.30;100.00;98891.91;2578718;28;20057;-82
2023/04/19 00:17:22;;;;;;;29.58;16.15;;;;;;;10.39;100.00;98892.63;2578412;28;20078;-82
2023/04/19 00:18:38;;;;;;;26.58;15.55;;;;;;;10.33;100.00;98893.59;2578634;28;20081;-82
2023/04/19 00:19:53;;;;;;;30.05;15.98;;;;;;;10.41;100.00;98885.63;2578939;28;20051;-82
2023/04/19 00:21:09;;;;;;;25.60;15.10;;;;;;;10.45;100.00;98892.50;2578064;28;20050;-82
2023/04/19 00:22:25;;;;;;;27.10;16.08;;;;;;;10.47;100.00;98884.63;2578697;28;20055;-82
2023/04/19 00:23:41;;;;;;;24.15;14.60;;;;;;;9.93;100.00;98884.75;2578561;28;20084;-81
2023/04/19 00:24:56;;;;;;;27.45;15.80;;;;;;;10.10;100.00;98881.81;2578512;28;20057;-82
2023/04/19 00:26:14;;;;;;;27.13;14.88;;;;;;;10.01;100.00;98880.22;2578697;28;20061;-81
2023/04/19 00:27:30;;;;;;;25.10;14.60;;;;;;;9.86;100.00;98878.78;2578503;28;20077;-82
2023/04/19 00:28:45;;;;;;;28.67;15.52;;;;;;;10.25;100.00;98882.41;2578570;28;20065;-81
2023/04/19 00:30:01;;;;;;;28.17;15.77;;;;;;;10.37;100.00;98873.47;2578481;28;20050;-82
2023/04/19 00:31:17;;;;;;;26.00;15.32;;;;;;;10.25;100.00;98878.06;2578406;28;20276;-82
2023/04/19 00:32:32;;;;;;;24.60;15.30;;;;;;;10.48;100.00;98876.78;2578182;28;20069;-82
2023/04/19 00:33:48;;;;;;;26.05;14.43;;;;;;;9.99;100.00;98868.94;2578506;28;20597;-81
2023/04/19 00:35:04;;;;;;;27.25;15.68;;;;;;;10.29;100.00;98868.38;2578189;28;20065;-82
2023/04/19 00:36:19;;;;;;;30.95;15.20;;;;;;;10.28;100.00;98864.91;2578550;28;20046;-81
2023/04/19 00:37:35;;;;;;;29.70;15.48;;;;;;;10.07;100.00;98860.94;2578386;28;20054;-82
2023/04/19 00:38:50;;;;;;;25.27;14.77;;;;;;;10.27;100.00;98865.78;2578395;28;20046;-82
2023/04/19 00:40:06;;;;;;;28.67;15.43;;;;;;;10.41;100.00;98855.09;2578509;28;20054;-81
2023/04/19 00:41:22;;;;;;;27.48;15.90;;;;;;;10.14;100.00;98857.34;2578204;28;20058;-81
2023/04/19 00:42:38;;;;;;;27.20;15.68;;;;;;;10.30;100.00;98865.72;2578048;28;20070;-81
2023/04/19 00:43:53;;;;;;;26.80;15.30;;;;;;;10.39;100.00;98863.81;2578446;28;20046;-81
2023/04/19 00:45:10;;;;;;;25.27;15.02;;;;;;;10.51;100.00;98860.13;2578301;28;20050;-82
2023/04/19 00:46:26;;;;;;;26.30;14.75;;;;;;;10.47;100.00;98854.06;2578468;28;20116;-81
2023/04/19 00:47:42;;;;;;;26.27;15.35;;;;;;;10.32;100.00;98857.84;2578359;28;20050;-82
2023/04/19 00:48:58;;;;;;;26.13;15.30;;;;;;;10.24;100.00;98854.50;2578128;28;20454;-82
2023/04/19 00:50:14;;;;;;;29.30;14.52;;;;;;;9.83;100.00;98854.44;2578444;28;20050;-81
2023/04/19 00:51:30;;;;;;;25.25;15.02;;;;;;;10.25;100.00;98851.88;2578326;28;20074;-81
2023/04/19 00:52:46;;;;;;;27.45;15.32;;;;;;;10.28;100.00;98849.19;2578024;28;20074;-82
2023/04/19 00:54:02;;;;;;;25.35;14.07;;;;;;;10.04;100.00;98848.78;2578445;28;20058;-81
2023/04/19 00:55:17;;;;;;;26.85;14.52;;;;;;;10.27;100.00;98839.63;2578066;28;20051;-81
2023/04/19 00:56:34;;;;;;;26.85;14.48;;;;;;;10.39;100.00;98840.28;2578176;28;20057;-81
2023/04/19 00:57:50;;;;;;;28.42;15.23;;;;;;;10.31;100.00;98843.03;2578320;28;20149;-81
2023/04/19 00:59:06;;;;;;;26.20;13.98;;;;;;;10.18;100.00;98840.69;2577996;28;20395;-82
2023/04/19 01:00:22;;;;;;;26.02;14.48;;;;;;;10.21;100.00;98841.50;2578398;28;20057;-81
2023/04/19 01:01:38;;;;;;;28.58;15.10;;;;;;;10.24;100.00;98834.47;2578276;28;20429;-82
2023/04/19 01:02:54;;;;;;;26.63;15.07;;;;;;;10.10;100.00;98836.50;2578133;28;20042;-82
2023/04/19 01:04:10;;;;;;;23.23;14.32;;;;;;;10.20;100.00;98834.53;2578046;28;20231;-82
2023/04/19 01:05:26;;;;;;;28.70;15.55;;;;;;;10.28;100.00;98830.88;2578410;28;20490;-81
2023/04/19 01:06:41;;;;;;;28.73;15.65;;;;;;;10.30;100.00;98830.84;2578058;28;20078;-82
2023/04/19 01:07:57;;;;;;;26.65;15.30;;;;;;;9.91;100.00;98831.59;2577546;28;20081;-82
2023/04/19 01:09:12;;;;;;;28.98;16.00;;;;;;;10.24;100.00;98826.59;2577855;28;20054;-82
2023/04/19 01:10:28;;;;;;;28.38;17.00;;;;;;;10.27;100.00;98829.16;2578198;28;20516;-81
2023/04/19 01:11:44;;;;;;;28.13;14.73;;;;;;;10.32;100.00;98824.69;2578244;28;20526;-82
2023/04/19 01:12:59;;;;;;;27.05;15.85;;;;;;;10.48;100.00;98828.78;2578151;28;20046;-81
2023/04/19 01:14:15;;;;;;;26.60;15.50;;;;;;;10.29;100.00;98823.91;2578080;28;20054;-82
2023/04/19 01:15:31;;;;;;;28.92;15.48;;;;;;;10.22;100.00;98827.53;2578256;28;20525;-81
2023/04/19 01:16:46;;;;;;;28.15;15.77;;;;;;;10.30;100.00;98831.69;2577913;28;20050;-83
2023/04/19 01:18:02;;;;;;;26.10;14.93;;;;;;;10.20;100.00;98824.97;2577933;28;20054;-82
2023/04/19 01:19:18;;;;;;;23.95;14.68;;;;;;;10.22;100.00;98823.16;2578103;28;20050;-82
2023/04/19 01:20:33;;;;;;;24.35;14.93;;;;;;;10.02;100.00;98819.19;2578205;28;20073;-81
2023/04/19 01:21:48;;;;;;;25.60;14.82;;;;;;;10.21;100.00;98826.69;2578113;28;20430;-81
2023/04/19 01:23:04;;;;;;;27.52;14.95;;;;;;;10.32;100.00;98816.81;2578084;28;20082;-82
2023/04/19 01:24:20;;;;;;;26.63;14.98;;;;;;;10.19;100.00;98815.34;2577305;28;20104;-82
2023/04/19 01:25:35;;;;;;;27.33;14.88;;;;;;;10.12;100.00;98817.22;2577735;28;20050;-82
2023/04/19 01:26:52;;;;;;;27.25;15.27;;;;;;;10.37;100.00;98810.66;2575333;28;20058;-81
2023/04/19 01:28:07;;;;;;;29.88;15.15;;;;;;;10.31;100.00;98812.50;2577849;28;20050;-82
2023/04/19 01:29:23;;;;;;;28.60;16.20;;;;;;;10.29;100.00;98809.03;2577878;28;20084;-81
2023/04/19 01:30:38;;;;;;;29.17;16.25;;;;;;;10.18;100.00;98811.88;2578048;28;20104;-82
2023/04/19 01:31:54;;;;;;;27.92;13.63;;;;;;;10.27;100.00;98805.59;2578043;28;20043;-81
2023/04/19 01:33:09;;;;;;;26.90;14.68;;;;;;;10.27;100.00;98805.59;2577434;28;20057;-82
2023/04/19 01:34:25;;;;;;;28.67;15.57;;;;;;;10.32;100.00;98806.34;2577679;28;20109;-82
2023/04/19 01:35:41;;;;;;;28.42;14.73;;;;;;;10.35;100.00;98802.81;2578081;28;20042;-82
2023/04/19 01:36:56;;;;;;;26.40;14.43;;;;;;;10.35;100.00;98804.59;2577963;28;20073;-81
2023/04/19 01:38:12;;;;;;;26.17;15.02;;;;;;;10.48;100.00;98802.59;2577975;28;20046;-81
2023/04/19 01:39:28;;;;;;;25.95;13.48;;;;;;;10.29;100.00;98803.81;2578101;28;20555;-81
2023/04/19 01:40:44;;;;;;;26.42;15.05;;;;;;;10.20;100.00;98803.16;2577731;28;20061;-82
2023/04/19 01:42:00;;;;;;;26.30;14.73;;;;;;;10.29;100.00;98798.56;2578095;28;20108;-82
2023/04/19 01:43:17;;;;;;;28.70;15.45;;;;;;;10.48;100.00;98789.50;2577713;28;20050;-81
2023/04/19 01:44:32;;;;;;;26.83;15.40;;;;;;;10.47;100.00;98787.78;2577985;28;20724;-81
2023/04/19 01:45:48;;;;;;;27.88;13.77;;;;;;;10.18;100.00;98792.69;2577646;28;20046;-82
2023/04/19 01:47:04;;;;;;;28.00;14.85;;;;;;;10.10;100.00;98792.00;2577849;28;20733;-82
2023/04/19 01:48:19;;;;;;;25.80;14.82;;;;;;;10.27;100.00;98796.91;2577957;28;20057;-82
2023/04/19 01:49:35;;;;;;;29.15;14.52;;;;;;;10.22;100.00;98793.50;2578062;28;20137;-81
2023/04/19 01:50:51;;;;;;;26.77;15.00;;;;;;;10.24;100.00;98789.97;2577708;28;20121;-82
2023/04/19 01:52:06;;;;;;;24.73;15.18;;;;;;;10.40;100.00;98784.41;2577681;28;20053;-81
2023/04/19 01:53:22;;;;;;;25.60;14.50;;;;;;;10.24;100.00;98789.97;2578114;28;20082;-81
2023/04/19 01:54:38;;;;;;;24.55;14.02;;;;;;;10.48;100.00;98794.75;2577834;28;20051;-82
2023/04/19 01:55:54;;;;;;;26.88;15.35;;;;;;;10.44;100.00;98786.09;2577553;28;20335;-82
2023/04/19 01:57:09;;;;;;;26.35;16.13;;;;;;;10.51;100.00;98782.44;2577820;28;20135;-82
2023/04/19 01:58:25;;;;;;;28.58;14.75;;;;;;;10.42;100.00;98780.91;2577791;28;20063;-81
2023/04/19 01:59:40;;;;;;;26.10;13.77;;;;;;;10.13;100.00;98782.34;2578045;28;20062;-81
2023/04/19 02:00:56;;;;;;;25.73;15.00;;;;;;;10.18;100.00;98782.22;2577783;28;20445;-81
2023/04/19 02:02:11;;;;;;;26.13;14.23;;;;;;;10.19;100.00;98778.72;2577909;28;20081;-82
2023/04/19 02:03:27;;;;;;;23.83;14.32;;;;;;;10.32;100.00;98779.34;2577795;28;20054;-82
2023/04/19 02:04:43;;;;;;;23.85;14.18;;;;;;;10.55;100.00;98778.84;2577788;28;20481;-82
2023/04/19 02:05:58;;;;;;;27.65;15.05;;;;;;;10.20;100.00;98782.22;2577747;28;20054;-82
2023/04/19 02:07:14;;;;;;;26.27;14.10;;;;;;;10.20;100.00;98772.63;2577740;28;20453;-82
2023/04/19 02:08:30;;;;;;;26.27;15.30;;;;;;;10.29;100.00;98772.41;2577869;28;20055;-81
2023/04/19 02:09:45;;;;;;;29.00;15.82;;;;;;;10.12;100.00;98774.53;2577969;28;20053;-82
2023/04/19 02:11:09;;;;;;;27.30;15.32;;;;;;;10.43;100.00;98769.53;2577738;28;20054;-82
2023/04/19 02:12:27;;;;;;;25.48;15.05;;;;;;;10.40;100.00;98768.69;2577623;28;20097;-82
2023/04/19 02:13:43;;;;;;;26.80;15.38;;;;;;;10.48;100.00;98769.44;2577780;28;20046;-81
2023/04/19 02:15:00;;;;;;;30.30;15.52;;;;;;;10.26;100.00;98764.63;2577891;28;20065;-82
2023/04/19 02:16:16;;;;;;;27.08;15.25;;;;;;;10.22;100.00;98764.72;2577699;28;20050;-81
2023/04/19 02:17:32;;;;;;;28.00;15.70;;;;;;;10.26;100.00;98771.59;2577708;28;20054;-82
2023/04/19 02:18:48;;;;;;;27.52;14.50;;;;;;;10.28;100.00;98773.31;2577979;28;20050;-81
2023/04/19 02:20:04;;;;;;;28.88;15.25;;;;;;;10.27;100.00;98761.13;2577322;28;20498;-81
2023/04/19 02:21:20;;;;;;;28.45;15.32;;;;;;;10.40;100.00;98766.09;2577611;28;20387;-81
2023/04/19 02:22:35;;;;;;;26.80;15.35;;;;;;;10.43;100.00;98763.41;2577961;28;20097;-82
2023/04/19 02:23:51;;;;;;;31.17;16.48;;;;;;;10.08;100.00;98758.03;2576896;28;20054;-81
2023/04/19 02:25:07;;;;;;;28.17;15.10;;;;;;;10.28;100.00;98760.22;2577101;28;20046;-81
2023/04/19 02:26:23;;;;;;;25.50;14.90;;;;;;;10.09;100.00;98764.97;2576971;28;20145;-82
2023/04/19 02:27:39;;;;;;;27.95;16.17;;;;;;;10.43;100.00;98763.41;2577180;28;20132;-81
2023/04/19 02:28:54;;;;;;;23.98;14.30;;;;;;;10.28;100.00;98759.38;2576929;28;20046;-82
2023/04/19 02:30:10;;;;;;;26.95;15.00;;;;;;;10.37;100.00;98759.16;2560989;28;20047;-82
2023/04/19 02:31:26;;;;;;;24.23;13.88;;;;;;;10.26;100.00;98764.63;2571139;28;20089;-82
2023/04/19 02:32:41;;;;;;;26.67;15.65;;;;;;;10.42;100.00;98759.97;2577802;28;20050;-81
2023/04/19 02:33:57;;;;;;;31.08;15.88;;;;;;;10.43;100.00;98756.44;2574954;28;20078;-82
2023/04/19 02:35:13;;;;;;;24.35;13.95;;;;;;;9.98;100.00;98754.75;2577628;28;20581;-82
2023/04/19 02:36:28;;;;;;;25.27;14.82;;;;;;;10.28;100.00;98754.13;2576651;28;20101;-81
2023/04/19 02:37:44;;;;;;;24.95;14.90;;;;;;;10.09;100.00;98756.28;2576679;28;20085;-82
2023/04/19 02:39:00;;;;;;;28.83;15.10;;;;;;;10.20;100.00;98745.59;2577547;28;20066;-82
2023/04/19 02:40:15;;;;;;;27.10;14.88;;;;;;;10.22;100.00;98747.28;2577835;28;20046;-82
2023/04/19 02:41:31;;;;;;;24.00;13.68;;;;;;;10.15;100.00;98743.94;2577599;28;20124;-81
2023/04/19 02:42:46;;;;;;;23.30;13.73;;;;;;;9.95;100.00;98748.72;2577526;28;20050;-81
2023/04/19 02:44:02;;;;;;;30.60;15.52;;;;;;;10.48;100.00;98750.25;2578299;28;20066;-82
2023/04/19 02:45:17;;;;;;;24.40;14.20;;;;;;;10.44;100.00;98752.94;2579552;28;20054;-82
2023/04/19 02:46:33;;;;;;;25.80;14.68;;;;;;;10.15;100.00;98749.16;2583214;28;20257;-82
2023/04/19 02:47:48;;;;;;;27.83;14.80;;;;;;;10.01;100.00;98745.97;2581257;28;20061;-81
2023/04/19 02:49:04;;;;;;;23.52;13.40;;;;;;;10.03;100.00;98757.28;2579581;28;20046;-81
2023/04/19 02:50:20;;;;;;;19.90;10.60;;;;;;;9.90;100.00;98746.19;2579558;28;20927;-81
2023/04/19 02:51:35;;;;;;;23.70;14.23;;;;;;;10.29;100.00;98750.63;2579307;28;20455;-81
2023/04/19 02:52:51;;;;;;;24.90;14.65;;;;;;;10.38;100.00;98741.72;2579644;28;20046;-82
2023/04/19 02:54:06;;;;;;;27.63;14.75;;;;;;;10.41;100.00;98733.81;2579609;28;20466;-82
2023/04/19 02:55:22;;;;;;;24.65;14.25;;;;;;;10.43;100.00;98743.38;2579209;28;20050;-81
2023/04/19 02:56:37;;;;;;;23.50;14.70;;;;;;;10.10;100.00;98737.91;2579557;28;20050;-82
2023/04/19 02:57:53;;;;;;;25.60;14.55;;;;;;;10.22;100.00;98738.56;2579508;28;20050;-81
2023/04/19 02:59:09;;;;;;;26.92;15.63;;;;;;;10.31;100.00;98739.22;2579636;28;20051;-82
2023/04/19 03:00:24;;;;;;;27.27;15.65;;;;;;;10.27;100.00;98744.56;2579580;28;20384;-81
2023/04/19 03:01:40;;;;;;;29.02;15.55;;;;;;;10.44;100.00;98739.84;2579425;28;20054;-81
2023/04/19 03:02:55;;;;;;;26.23;15.65;;;;;;;10.50;100.00;98732.72;2579495;28;20046;-82
2023/04/19 03:04:11;;;;;;;26.15;15.93;;;;;;;10.42;100.00;98732.91;2579339;28;21050;-81
2023/04/19 03:05:27;;;;;;;30.08;16.73;;;;;;;10.58;100.00;98731.66;2579319;28;20101;-82
2023/04/19 03:06:43;;;;;;;28.08;15.73;;;;;;;10.42;100.00;98732.91;2579508;28;20089;-82
2023/04/19 03:07:59;;;;;;;26.65;15.55;;;;;;;10.42;100.00;98730.28;2579409;28;20145;-82
2023/04/19 03:09:14;;;;;;;24.85;15.75;;;;;;;10.60;100.00;98727.25;2579468;28;20499;-82
2023/04/19 03:10:30;;;;;;;27.33;15.48;;;;;;;10.31;100.00;98730.50;2579404;28;20418;-81
2023/04/19 03:11:45;;;;;;;28.95;16.95;;;;;;;10.49;100.00;98725.78;2579300;28;20490;-82
2023/04/19 03:13:01;;;;;;;24.90;14.25;;;;;;;10.38;100.00;98720.78;2579073;28;20085;-82
2023/04/19 03:14:17;;;;;;;27.17;16.15;;;;;;;10.40;100.00;98722.44;2578164;28;20105;-81
2023/04/19 03:15:32;;;;;;;28.35;16.02;;;;;;;10.43;100.00;98716.31;2578762;28;20502;-82
2023/04/19 03:16:48;;;;;;;28.45;16.17;;;;;;;10.35;100.00;98716.44;2579505;28;20097;-81
2023/04/19 03:18:03;;;;;;;27.88;15.38;;;;;;;10.30;100.00;98708.69;2579249;28;20050;-82
2023/04/19 03:19:19;;;;;;;26.92;16.40;;;;;;;10.31;100.00;98718.28;2579377;28;20080;-82
2023/04/19 03:20:34;;;;;;;29.90;17.02;;;;;;;10.43;100.00;98714.56;2579458;28;20445;-82
2023/04/19 03:21:50;;;;;;;27.67;16.67;;;;;;;10.31;100.00;98712.19;2579273;28;20053;-81
2023/04/19 03:23:05;;;;;;;31.75;17.95;;;;;;;10.39;100.00;98710.25;2579226;28;20060;-82
2023/04/19 03:24:30;;;;;;;30.70;16.90;;;;;;;10.34;100.00;98714.72;2579126;28;20519;-82
2023/04/19 03:25:46;;;;;;;32.08;18.58;;;;;;;10.39;100.00;98709.41;2579470;28;20077;-82
2023/04/19 03:27:02;;;;;;;33.38;17.90;;;;;;;10.50;100.00;98707.44;2579061;28;20073;-82
2023/04/19 03:28:18;;;;;;;30.08;16.98;;;;;;;10.39;100.00;98699.78;2579323;28;20548;-82
2023/04/19 03:29:34;;;;;;;26.98;15.10;;;;;;;10.14;100.00;98704.72;2579303;28;20093;-82
2023/04/19 03:30:49;;;;;;;25.67;15.68;;;;;;;10.20;100.00;98698.47;2578597;28;20461;-82
2023/04/19 03:32:06;;;;;;;24.98;16.02;;;;;;;10.28;100.00;98705.25;2579476;28;20058;-82
2023/04/19 03:33:21;;;;;;;28.27;16.25;;;;;;;10.17;100.00;98700.28;2579083;28;20098;-82
2023/04/19 03:34:37;;;;;;;28.20;16.25;;;;;;;10.07;100.00;98692.69;2578983;28;20050;-82
2023/04/19 03:35:53;;;;;;;28.45;16.20;;;;;;;10.10;100.00;98701.28;2579052;28;20058;-82
2023/04/19 03:37:08;;;;;;;26.42;14.00;;;;;;;10.21;100.00;98700.19;2579132;28;20043;-82
2023/04/19 03:38:23;;;;;;;27.85;16.85;;;;;;;10.28;100.00;98692.19;2577861;28;20047;-83
2023/04/19 03:39:39;;;;;;;28.95;16.80;;;;;;;10.18;100.00;98695.88;2577538;28;20062;-82
2023/04/19 03:40:56;;;;;;;26.60;15.90;;;;;;;10.21;100.00;98689.75;2578602;28;20046;-82
2023/04/19 03:42:11;;;;;;;28.35;16.58;;;;;;;10.24;100.00;98684.44;2579070;28;20062;-82
2023/04/19 03:43:27;;;;;;;31.75;16.38;;;;;;;10.43;100.00;98688.38;2579126;28;20139;-82
2023/04/19 03:44:42;;;;;;;27.77;16.67;;;;;;;10.46;100.00;98690.06;2579198;28;20061;-82
2023/04/19 03:45:58;;;;;;;28.35;16.95;;;;;;;10.36;100.00;98685.94;2579420;28;20054;-82
2023/04/19 03:47:14;;;;;;;28.90;17.10;;;;;;;10.21;100.00;98689.75;2578807;28;21130;-82
2023/04/19 03:48:29;;;;;;;29.27;17.30;;;;;;;10.18;100.00;98691.53;2579153;28;20046;-82
2023/04/19 03:49:45;;;;;;;26.58;15.85;;;;;;;10.14;100.00;98692.50;2579252;28;20053;-81
2023/04/19 03:51:00;;;;;;;29.17;17.10;;;;;;;10.25;100.00;98686.16;2579015;28;20050;-81
2023/04/19 03:52:16;;;;;;;30.70;16.33;;;;;;;10.31;100.00;98681.63;2579007;28;20474;-82
2023/04/19 03:53:31;;;;;;;27.60;16.20;;;;;;;10.25;100.00;98687.03;2579181;28;20061;-82
2023/04/19 03:54:47;;;;;;;24.90;14.00;;;;;;;10.26;100.00;98683.50;2579027;28;20053;-82
2023/04/19 03:56:03;;;;;;;27.70;16.27;;;;;;;10.20;100.00;98681.03;2578693;28;20050;-81
2023/04/19 03:57:18;;;;;;;29.83;16.92;;;;;;;10.18;100.00;98688.91;2578834;28;20051;-81
2023/04/19 03:58:34;;;;;;;27.05;16.35;;;;;;;10.30;100.00;98681.69;2579088;28;20104;-81
2023/04/19 03:59:49;;;;;;;30.23;18.17;;;;;;;9.98;100.00;98678.88;2579064;28;20489;-82
2023/04/19 04:01:07;;;;;;;26.75;16.27;;;;;;;10.14;100.00;98676.81;2575621;28;20085;-81
2023/04/19 04:02:22;;;;;;;30.85;17.05;;;;;;;10.28;100.00;98676.47;2578011;28;20134;-82
2023/04/19 04:03:38;;;;;;;29.83;16.70;;;;;;;10.36;100.00;98680.69;2579040;28;20521;-81
2023/04/19 04:04:54;;;;;;;28.35;17.55;;;;;;;10.33;100.00;98679.00;2578553;28;20046;-81
2023/04/19 04:06:10;;;;;;;28.92;17.08;;;;;;;10.38;100.00;98682.34;2578352;28;20096;-82
2023/04/19 04:07:25;;;;;;;35.33;17.88;;;;;;;10.24;100.00;98673.97;2578632;28;20054;-82
2023/04/19 04:08:41;;;;;;;26.40;15.30;;;;;;;9.92;100.00;98680.78;2578555;28;20054;-82
2023/04/19 04:09:56;;;;;;;27.02;15.45;;;;;;;10.32;100.00;98678.13;2578856;28;20096;-82
2023/04/19 04:11:12;;;;;;;31.10;17.98;;;;;;;10.33;100.00;98676.38;2578496;28;20050;-82
2023/04/19 04:12:27;;;;;;;27.75;16.65;;;;;;;10.28;100.00;98673.84;2578754;28;20113;-82
2023/04/19 04:13:45;;;;;;;31.08;16.92;;;;;;;10.33;100.00;98673.75;2578682;28;20050;-82
2023/04/19 04:15:01;;;;;;;26.83;16.50;;;;;;;10.33;100.00;98673.75;2578547;28;20502;-82
2023/04/19 04:16:16;;;;;;;30.65;16.48;;;;;;;10.27;100.00;98680.00;2578662;28;20045;-82
2023/04/19 04:17:32;;;;;;;29.08;16.60;;;;;;;10.24;100.00;98676.56;2578632;28;20692;-82
2023/04/19 04:18:48;;;;;;;26.10;15.45;;;;;;;10.30;100.00;98673.84;2578466;28;20050;-82
2023/04/19 04:20:04;;;;;;;26.98;16.70;;;;;;;10.29;100.00;98672.97;2578159;28;20054;-82
2023/04/19 04:21:20;;;;;;;25.85;16.65;;;;;;;10.09;100.00;98685.66;2577383;28;21772;-81
2023/04/19 04:22:40;;;;;;;26.85;16.00;;;;;;;10.00;100.00;98682.31;2577963;28;20058;-81
2023/04/19 04:23:56;;;;;;;27.00;15.40;;;;;;;10.20;100.00;98678.44;2578594;28;20054;-82
2023/04/19 04:25:12;;;;;;;26.63;14.30;;;;;;;10.22;100.00;98675.75;2578506;28;20050;-82
2023/04/19 04:26:32;;;;;;;27.95;15.60;;;;;;;10.12;100.00;98680.34;2578271;28;20072;-82
2023/04/19 04:27:51;;;;;;;27.23;16.20;;;;;;;10.42;100.00;98675.31;2578365;28;20042;-82
2023/04/19 04:29:07;;;;;;;23.13;13.65;;;;;;;9.81;100.00;98671.41;2578477;28;20133;-82
2023/04/19 04:30:22;;;;;;;28.20;16.02;;;;;;;10.01;100.00;98672.75;2578336;28;20046;-82
2023/04/19 04:31:38;;;;;;;28.70;17.52;;;;;;;10.25;100.00;98666.09;2578311;28;20042;-82
2023/04/19 04:32:56;;;;;;;29.65;17.35;;;;;;;10.37;100.00;98669.31;2578344;28;20066;-82
2023/04/19 04:34:13;;;;;;;28.70;16.30;;;;;;;10.26;100.00;98667.81;2576721;28;20402;-81
2023/04/19 04:35:29;;;;;;;28.35;16.77;;;;;;;10.06;100.00;98672.63;2577259;28;20418;-82
2023/04/19 04:36:46;;;;;;;24.33;15.25;;;;;;;10.00;100.00;98673.63;2578209;28;20047;-82
2023/04/19 04:38:02;;;;;;;28.48;16.67;;;;;;;10.14;100.00;98673.31;2578447;28;20486;-81
2023/04/19 04:39:17;;;;;;;28.17;18.00;;;;;;;10.00;100.00;98671.03;2578369;28;20104;-81
2023/04/19 04:40:33;;;;;;;29.08;17.17;;;;;;;10.02;100.00;98669.22;2578207;28;20051;-82
2023/04/19 04:41:50;;;;;;;31.10;17.55;;;;;;;9.90;100.00;98665.09;2578363;28;20058;-82
2023/04/19 04:43:06;;;;;;;22.48;11.95;;;;;;;10.01;100.00;98664.91;2578282;28;20054;-81
2023/04/19 04:44:23;;;;;;;32.08;17.55;;;;;;;9.82;100.00;98664.44;2577976;28;20078;-82
2023/04/19 04:45:38;;;;;;;31.88;18.10;;;;;;;9.59;100.00;98663.13;2578242;28;20049;-82
2023/04/19 04:46:54;;;;;;;31.25;18.02;;;;;;;9.93;100.00;98659.84;2577966;28;20486;-82
2023/04/19 04:48:09;;;;;;;30.08;17.02;;;;;;;9.77;100.00;98655.81;2578176;28;20050;-82
2023/04/19 04:49:25;;;;;;;33.80;18.80;;;;;;;9.76;100.00;98662.81;2577927;28;20132;-82
2023/04/19 04:50:41;;;;;;;33.83;18.67;;;;;;;9.89;100.00;98658.16;2577940;28;20069;-82
2023/04/19 04:51:57;;;;;;;31.63;18.42;;;;;;;9.77;100.00;98663.66;2578006;28;20065;-82
2023/04/19 04:53:12;;;;;;;31.08;17.42;;;;;;;9.72;100.00;98662.00;2577954;28;20042;-81
2023/04/19 04:54:28;;;;;;;33.10;18.70;;;;;;;9.98;100.00;98654.47;2577924;28;20537;-82
2023/04/19 04:55:44;;;;;;;31.50;17.92;;;;;;;9.93;100.00;98654.59;2578317;28;20328;-82
2023/04/19 04:57:00;;;;;;;30.30;17.73;;;;;;;9.74;100.00;98661.97;2577844;28;20061;-82
2023/04/19 04:58:15;;;;;;;29.20;15.57;;;;;;;9.80;100.00;98658.38;2577993;28;20046;-81
2023/04/19 04:59:31;;;;;;;31.90;18.50;;;;;;;9.80;100.00;98653.16;2577867;28;20055;-81
2023/04/19 05:00:47;;;;;;;30.30;17.50;;;;;;;9.99;100.00;98654.44;2577870;28;20046;-81
2023/04/19 05:02:03;;;;;;;32.22;16.67;;;;;;;10.09;100.00;98649.03;2578079;28;20049;-82
2023/04/19 05:03:19;;;;;;;29.58;16.65;;;;;;;10.17;100.00;98650.56;2577938;28;20112;-82
2023/04/19 05:04:34;;;;;;;30.63;16.80;;;;;;;10.03;100.00;98652.63;2578005;28;20065;-81
2023/04/19 05:05:50;;;;;;;31.38;18.50;;;;;;;10.33;100.00;98647.59;2578165;28;20034;-82
2023/04/19 05:07:05;;;;;;;29.10;17.23;;;;;;;10.18;100.00;98654.03;2577753;28;20141;-82
2023/04/19 05:08:21;;;;;;;29.55;16.35;;;;;;;10.30;100.00;98645.91;2577698;28;20061;-82
2023/04/19 05:09:36;;;;;;;27.73;15.27;;;;;;;10.10;100.00;98648.13;2578171;28;20057;-82
2023/04/19 05:10:52;;;;;;;28.77;15.73;;;;;;;10.10;100.00;98643.75;2577852;28;20081;-83
2023/04/19 05:12:08;;;;;;;28.73;16.45;;;;;;;10.17;100.00;98647.94;2578165;28;20069;-81
2023/04/19 05:13:23;;;;;;;30.25;17.95;;;;;;;10.09;100.00;98641.19;2578044;28;20417;-82
2023/04/19 05:14:39;;;;;;;25.80;14.85;;;;;;;9.92;100.00;98647.66;2577625;28;20065;-81
2023/04/19 05:15:54;;;;;;;32.03;18.33;;;;;;;9.83;100.00;98645.22;2575734;28;20093;-82
2023/04/19 05:17:10;;;;;;;32.20;18.15;;;;;;;10.06;100.00;98643.84;2577649;28;20065;-81
2023/04/19 05:18:26;;;;;;;30.73;17.77;;;;;;;9.91;100.00;98652.91;2578052;28;20077;-82
2023/04/19 05:19:41;;;;;;;29.27;17.55;;;;;;;9.83;100.00;98643.47;2578273;28;20054;-81
2023/04/19 05:20:57;;;;;;;24.63;13.50;;;;;;;9.91;100.00;98650.28;2577960;28;20045;-82
2023/04/19 05:22:12;;;;;;;31.27;17.02;;;;;;;10.12;100.00;98639.31;2577682;28;20336;-81
2023/04/19 05:23:28;;;;;;;30.50;17.05;;;;;;;10.17;100.00;98642.72;2577974;28;20054;-82
2023/04/19 05:24:43;;;;;;;30.15;17.40;;;;;;;9.98;100.00;98644.00;2577999;28;20108;-82
2023/04/19 05:25:59;;;;;;;30.33;17.77;;;;;;;9.93;100.00;98638.03;2578296;28;20065;-81
2023/04/19 05:27:15;;;;;;;30.00;17.35;;;;;;;10.06;100.00;98638.59;2577761;28;20057;-81
2023/04/19 05:28:30;;;;;;;28.73;16.55;;;;;;;10.06;100.00;98641.22;2578014;28;20108;-82
2023/04/19 05:29:46;;;;;;;25.42;14.43;;;;;;;9.93;100.00;98641.53;2577866;28;20081;-81
2023/04/19 05:31:01;;;;;;;32.17;17.75;;;;;;;10.06;100.00;98642.09;2576935;28;20053;-82
2023/04/19 05:32:17;;;;;;;31.17;18.08;;;;;;;9.79;100.00;98646.19;2577372;28;20050;-81
2023/04/19 05:33:33;;;;;;;29.55;16.73;;;;;;;9.84;100.00;98642.56;2577991;28;20086;-81
2023/04/19 05:34:49;;;;;;;29.77;17.80;;;;;;;9.86;100.00;98638.19;2577378;28;20725;-81
2023/04/19 05:36:05;;;;;;;28.10;15.63;;;;;;;9.91;100.00;98629.38;2578128;28;20042;-81
2023/04/19 05:37:22;;;;;;;24.00;14.15;;;;;;;9.82;100.00;98633.06;2577458;28;20062;-81
2023/04/19 05:38:38;;;;;;;29.88;16.70;;;;;;;10.04;100.00;98633.44;2577379;28;20082;-82
2023/04/19 05:39:53;;;;;;;29.67;16.90;;;;;;;9.97;100.00;98632.72;2577994;28;20042;-81
2023/04/19 05:41:10;;;;;;;29.63;15.35;;;;;;;9.84;100.00;98634.72;2577712;28;20421;-81
2023/04/19 05:42:25;;;;;;;29.95;15.68;;;;;;;9.84;100.00;98634.72;2577542;28;20050;-82
2023/04/19 05:43:41;;;;;;;27.27;15.32;;;;;;;9.98;100.00;98630.94;2578029;28;20054;-81
2023/04/19 05:44:57;;;;;;;28.83;16.38;;;;;;;10.15;100.00;98630.56;2577679;28;20128;-82